sensor_id;sensor_type;location;lat;lon;timestamp;P1;durP1;ratioP1;P2;durP2;ratioP2
72325;SDS011;60278;47.980;18.780;2024-01-27T00:02:51;11.15;;;6.50;;
72325;SDS011;60278;47.980;18.780;2024-01-27T00:05:53;12.15;;;6.38;;
72325;SDS011;60278;47.980;18.780;2024-01-27T00:08:55;11.37;;;6.20;;
72325;SDS011;60278;47.980;18.780;2024-01-27T00:11:57;12.68;;;6.40;;
72325;SDS011;60278;47.980;18.780;2024-01-27T00:15:00;10.45;;;6.38;;
72325;SDS011;60278;47.980;18.780;2024-01-27T00:18:02;9.90;;;6.05;;
72325;SDS011;60278;47.980;18.780;2024-01-27T00:21:05;10.05;;;5.40;;
72325;SDS011;60278;47.980;18.780;2024-01-27T00:24:07;8.73;;;5.13;;
72325;SDS011;60278;47.980;18.780;2024-01-27T00:27:10;8.35;;;4.93;;
72325;SDS011;60278;47.980;18.780;2024-01-27T00:30:12;8.57;;;4.60;;
72325;SDS011;60278;47.980;18.780;2024-01-27T00:33:15;7.50;;;4.13;;
72325;SDS011;60278;47.980;18.780;2024-01-27T00:36:17;7.13;;;3.78;;
72325;SDS011;60278;47.980;18.780;2024-01-27T00:39:19;8.47;;;3.67;;
72325;SDS011;60278;47.980;18.780;2024-01-27T00:42:22;6.50;;;3.47;;
72325;SDS011;60278;47.980;18.780;2024-01-27T00:45:26;5.93;;;3.10;;
72325;SDS011;60278;47.980;18.780;2024-01-27T00:48:30;7.28;;;3.67;;
72325;SDS011;60278;47.980;18.780;2024-01-27T00:51:33;7.72;;;3.20;;
72325;SDS011;60278;47.980;18.780;2024-01-27T00:54:35;6.80;;;3.13;;
72325;SDS011;60278;47.980;18.780;2024-01-27T00:57:37;7.40;;;3.08;;
72325;SDS011;60278;47.980;18.780;2024-01-27T01:00:40;6.63;;;3.13;;
72325;SDS011;60278;47.980;18.780;2024-01-27T01:03:42;6.35;;;2.70;;
72325;SDS011;60278;47.980;18.780;2024-01-27T01:06:44;6.97;;;3.00;;
72325;SDS011;60278;47.980;18.780;2024-01-27T01:09:47;7.33;;;2.73;;
72325;SDS011;60278;47.980;18.780;2024-01-27T01:12:49;5.28;;;2.58;;
72325;SDS011;60278;47.980;18.780;2024-01-27T01:15:51;4.72;;;2.70;;
72325;SDS011;60278;47.980;18.780;2024-01-27T01:18:53;4.72;;;2.72;;
72325;SDS011;60278;47.980;18.780;2024-01-27T01:21:55;4.95;;;2.75;;
72325;SDS011;60278;47.980;18.780;2024-01-27T01:24:57;5.00;;;2.50;;
72325;SDS011;60278;47.980;18.780;2024-01-27T01:28:00;6.30;;;2.40;;
72325;SDS011;60278;47.980;18.780;2024-01-27T01:31:02;4.35;;;2.40;;
72325;SDS011;60278;47.980;18.780;2024-01-27T01:34:04;5.03;;;2.40;;
72325;SDS011;60278;47.980;18.780;2024-01-27T01:37:06;5.55;;;2.20;;
72325;SDS011;60278;47.980;18.780;2024-01-27T01:40:09;3.93;;;1.90;;
72325;SDS011;60278;47.980;18.780;2024-01-27T01:43:11;5.05;;;2.15;;
72325;SDS011;60278;47.980;18.780;2024-01-27T01:46:16;4.82;;;2.03;;
72325;SDS011;60278;47.980;18.780;2024-01-27T01:49:18;4.18;;;2.25;;
72325;SDS011;60278;47.980;18.780;2024-01-27T01:52:21;4.25;;;2.38;;
72325;SDS011;60278;47.980;18.780;2024-01-27T01:55:23;3.50;;;1.80;;
72325;SDS011;60278;47.980;18.780;2024-01-27T01:58:25;3.38;;;2.00;;
72325;SDS011;60278;47.980;18.780;2024-01-27T02:01:27;4.65;;;2.25;;
72325;SDS011;60278;47.980;18.780;2024-01-27T02:04:38;3.90;;;2.03;;
72325;SDS011;60278;47.980;18.780;2024-01-27T02:07:40;4.22;;;1.98;;
72325;SDS011;60278;47.980;18.780;2024-01-27T02:10:42;4.10;;;1.83;;
72325;SDS011;60278;47.980;18.780;2024-01-27T02:13:44;4.35;;;2.10;;
72325;SDS011;60278;47.980;18.780;2024-01-27T02:16:48;3.10;;;1.70;;
72325;SDS011;60278;47.980;18.780;2024-01-27T02:19:50;3.58;;;1.75;;
72325;SDS011;60278;47.980;18.780;2024-01-27T02:22:52;3.95;;;2.08;;
72325;SDS011;60278;47.980;18.780;2024-01-27T02:25:54;5.83;;;1.90;;
72325;SDS011;60278;47.980;18.780;2024-01-27T02:28:56;5.07;;;2.00;;
72325;SDS011;60278;47.980;18.780;2024-01-27T02:31:58;4.35;;;1.90;;
72325;SDS011;60278;47.980;18.780;2024-01-27T02:35:00;3.47;;;1.80;;
72325;SDS011;60278;47.980;18.780;2024-01-27T02:38:03;5.32;;;1.95;;
72325;SDS011;60278;47.980;18.780;2024-01-27T02:41:05;4.03;;;1.37;;
72325;SDS011;60278;47.980;18.780;2024-01-27T02:44:07;4.50;;;1.92;;
72325;SDS011;60278;47.980;18.780;2024-01-27T02:47:09;3.65;;;1.73;;
72325;SDS011;60278;47.980;18.780;2024-01-27T02:50:11;2.63;;;1.48;;
72325;SDS011;60278;47.980;18.780;2024-01-27T02:53:13;5.10;;;1.63;;
72325;SDS011;60278;47.980;18.780;2024-01-27T02:56:18;3.57;;;1.53;;
72325;SDS011;60278;47.980;18.780;2024-01-27T02:59:20;3.90;;;1.50;;
72325;SDS011;60278;47.980;18.780;2024-01-27T03:02:22;4.38;;;1.70;;
72325;SDS011;60278;47.980;18.780;2024-01-27T03:05:26;2.90;;;1.42;;
72325;SDS011;60278;47.980;18.780;2024-01-27T03:08:28;3.30;;;1.98;;
72325;SDS011;60278;47.980;18.780;2024-01-27T03:11:31;4.03;;;1.50;;
72325;SDS011;60278;47.980;18.780;2024-01-27T03:14:33;3.95;;;1.65;;
72325;SDS011;60278;47.980;18.780;2024-01-27T03:17:35;3.92;;;2.00;;
72325;SDS011;60278;47.980;18.780;2024-01-27T03:20:37;3.72;;;2.05;;
72325;SDS011;60278;47.980;18.780;2024-01-27T03:23:39;4.15;;;1.65;;
72325;SDS011;60278;47.980;18.780;2024-01-27T03:26:41;7.73;;;1.73;;
72325;SDS011;60278;47.980;18.780;2024-01-27T03:29:43;4.63;;;1.90;;
72325;SDS011;60278;47.980;18.780;2024-01-27T03:32:45;4.57;;;1.60;;
72325;SDS011;60278;47.980;18.780;2024-01-27T03:35:47;4.18;;;2.03;;
72325;SDS011;60278;47.980;18.780;2024-01-27T03:38:52;3.28;;;2.00;;
72325;SDS011;60278;47.980;18.780;2024-01-27T03:41:55;4.50;;;1.70;;
72325;SDS011;60278;47.980;18.780;2024-01-27T03:44:57;3.53;;;1.85;;
72325;SDS011;60278;47.980;18.780;2024-01-27T03:47:59;5.90;;;1.90;;
72325;SDS011;60278;47.980;18.780;2024-01-27T03:51:05;4.10;;;1.98;;
72325;SDS011;60278;47.980;18.780;2024-01-27T03:54:07;4.95;;;2.15;;
72325;SDS011;60278;47.980;18.780;2024-01-27T03:57:10;4.33;;;1.63;;
72325;SDS011;60278;47.980;18.780;2024-01-27T04:00:12;4.45;;;1.77;;
72325;SDS011;60278;47.980;18.780;2024-01-27T04:03:14;5.53;;;1.90;;
72325;SDS011;60278;47.980;18.780;2024-01-27T04:06:17;3.33;;;1.65;;
72325;SDS011;60278;47.980;18.780;2024-01-27T04:09:19;2.63;;;1.75;;
72325;SDS011;60278;47.980;18.780;2024-01-27T04:12:21;4.47;;;1.60;;
72325;SDS011;60278;47.980;18.780;2024-01-27T04:15:23;3.22;;;1.50;;
72325;SDS011;60278;47.980;18.780;2024-01-27T04:18:25;3.53;;;1.90;;
72325;SDS011;60278;47.980;18.780;2024-01-27T04:21:28;7.38;;;1.83;;
72325;SDS011;60278;47.980;18.780;2024-01-27T04:24:30;3.65;;;2.05;;
72325;SDS011;60278;47.980;18.780;2024-01-27T04:27:36;5.40;;;1.80;;
72325;SDS011;60278;47.980;18.780;2024-01-27T04:30:38;5.35;;;1.67;;
72325;SDS011;60278;47.980;18.780;2024-01-27T04:33:40;4.85;;;1.80;;
72325;SDS011;60278;47.980;18.780;2024-01-27T04:36:43;3.47;;;1.83;;
72325;SDS011;60278;47.980;18.780;2024-01-27T04:39:45;3.60;;;2.10;;
72325;SDS011;60278;47.980;18.780;2024-01-27T04:42:47;3.97;;;1.80;;
72325;SDS011;60278;47.980;18.780;2024-01-27T04:45:49;3.15;;;1.60;;
72325;SDS011;60278;47.980;18.780;2024-01-27T04:48:51;3.75;;;1.98;;
72325;SDS011;60278;47.980;18.780;2024-01-27T04:51:53;2.72;;;1.67;;
72325;SDS011;60278;47.980;18.780;2024-01-27T04:54:55;5.32;;;2.38;;
72325;SDS011;60278;47.980;18.780;2024-01-27T04:57:58;3.97;;;1.80;;
72325;SDS011;60278;47.980;18.780;2024-01-27T05:01:03;5.25;;;1.60;;
72325;SDS011;60278;47.980;18.780;2024-01-27T05:04:05;5.38;;;2.00;;
72325;SDS011;60278;47.980;18.780;2024-01-27T05:07:07;3.33;;;2.00;;
72325;SDS011;60278;47.980;18.780;2024-01-27T05:10:12;7.07;;;2.40;;
72325;SDS011;60278;47.980;18.780;2024-01-27T05:13:14;4.87;;;1.80;;
72325;SDS011;60278;47.980;18.780;2024-01-27T05:16:16;10.30;;;5.68;;
72325;SDS011;60278;47.980;18.780;2024-01-27T05:19:18;12.25;;;4.60;;
72325;SDS011;60278;47.980;18.780;2024-01-27T05:22:20;13.18;;;6.65;;
72325;SDS011;60278;47.980;18.780;2024-01-27T05:25:22;31.05;;;15.35;;
72325;SDS011;60278;47.980;18.780;2024-01-27T05:28:24;49.73;;;26.17;;
72325;SDS011;60278;47.980;18.780;2024-01-27T05:31:26;25.33;;;11.77;;
72325;SDS011;60278;47.980;18.780;2024-01-27T05:34:28;13.95;;;6.80;;
72325;SDS011;60278;47.980;18.780;2024-01-27T05:37:31;28.23;;;14.00;;
72325;SDS011;60278;47.980;18.780;2024-01-27T05:40:33;12.00;;;6.00;;
72325;SDS011;60278;47.980;18.780;2024-01-27T05:43:35;8.93;;;3.87;;
72325;SDS011;60278;47.980;18.780;2024-01-27T05:46:37;17.38;;;5.55;;
72325;SDS011;60278;47.980;18.780;2024-01-27T05:49:39;9.20;;;4.40;;
72325;SDS011;60278;47.980;18.780;2024-01-27T05:52:41;5.82;;;2.85;;
72325;SDS011;60278;47.980;18.780;2024-01-27T05:55:43;12.18;;;5.28;;
72325;SDS011;60278;47.980;18.780;2024-01-27T05:58:48;12.93;;;4.87;;
72325;SDS011;60278;47.980;18.780;2024-01-27T06:01:50;7.05;;;2.80;;
72325;SDS011;60278;47.980;18.780;2024-01-27T06:04:53;9.80;;;4.43;;
72325;SDS011;60278;47.980;18.780;2024-01-27T06:07:55;6.53;;;3.25;;
72325;SDS011;60278;47.980;18.780;2024-01-27T06:10:57;7.05;;;2.38;;
72325;SDS011;60278;47.980;18.780;2024-01-27T06:14:02;4.70;;;2.57;;
72325;SDS011;60278;47.980;18.780;2024-01-27T06:17:04;7.00;;;3.08;;
72325;SDS011;60278;47.980;18.780;2024-01-27T06:20:07;10.13;;;3.75;;
72325;SDS011;60278;47.980;18.780;2024-01-27T06:23:09;6.00;;;2.65;;
72325;SDS011;60278;47.980;18.780;2024-01-27T06:26:12;4.85;;;2.40;;
72325;SDS011;60278;47.980;18.780;2024-01-27T06:29:14;7.27;;;3.60;;
72325;SDS011;60278;47.980;18.780;2024-01-27T06:32:17;12.98;;;5.45;;
72325;SDS011;60278;47.980;18.780;2024-01-27T06:35:19;9.00;;;3.40;;
72325;SDS011;60278;47.980;18.780;2024-01-27T06:38:21;7.25;;;3.38;;
72325;SDS011;60278;47.980;18.780;2024-01-27T06:41:23;8.93;;;3.92;;
72325;SDS011;60278;47.980;18.780;2024-01-27T06:44:25;17.80;;;8.37;;
72325;SDS011;60278;47.980;18.780;2024-01-27T06:47:27;34.80;;;15.18;;
72325;SDS011;60278;47.980;18.780;2024-01-27T06:50:29;10.07;;;4.40;;
72325;SDS011;60278;47.980;18.780;2024-01-27T06:53:31;14.98;;;4.40;;
72325;SDS011;60278;47.980;18.780;2024-01-27T06:56:33;8.02;;;3.50;;
72325;SDS011;60278;47.980;18.780;2024-01-27T06:59:35;9.30;;;3.53;;
72325;SDS011;60278;47.980;18.780;2024-01-27T07:02:37;20.27;;;10.50;;
72325;SDS011;60278;47.980;18.780;2024-01-27T07:05:39;11.32;;;4.55;;
72325;SDS011;60278;47.980;18.780;2024-01-27T07:08:43;8.85;;;5.50;;
72325;SDS011;60278;47.980;18.780;2024-01-27T07:11:45;11.85;;;4.00;;
72325;SDS011;60278;47.980;18.780;2024-01-27T07:14:47;26.30;;;15.97;;
72325;SDS011;60278;47.980;18.780;2024-01-27T07:17:49;21.00;;;10.70;;
72325;SDS011;60278;47.980;18.780;2024-01-27T07:20:51;14.60;;;9.68;;
72325;SDS011;60278;47.980;18.780;2024-01-27T07:23:53;7.72;;;3.38;;
72325;SDS011;60278;47.980;18.780;2024-01-27T07:26:55;3.83;;;2.05;;
72325;SDS011;60278;47.980;18.780;2024-01-27T07:29:59;10.33;;;5.03;;
72325;SDS011;60278;47.980;18.780;2024-01-27T07:33:01;10.50;;;5.60;;
72325;SDS011;60278;47.980;18.780;2024-01-27T07:36:04;12.45;;;6.40;;
72325;SDS011;60278;47.980;18.780;2024-01-27T07:39:06;6.25;;;4.15;;
72325;SDS011;60278;47.980;18.780;2024-01-27T07:42:08;5.57;;;2.60;;
72325;SDS011;60278;47.980;18.780;2024-01-27T07:45:12;5.87;;;2.30;;
72325;SDS011;60278;47.980;18.780;2024-01-27T07:48:14;6.25;;;2.45;;
72325;SDS011;60278;47.980;18.780;2024-01-27T07:51:16;5.35;;;2.50;;
72325;SDS011;60278;47.980;18.780;2024-01-27T07:54:18;6.70;;;3.03;;
72325;SDS011;60278;47.980;18.780;2024-01-27T07:57:21;7.50;;;3.50;;
72325;SDS011;60278;47.980;18.780;2024-01-27T08:00:24;7.30;;;3.20;;
72325;SDS011;60278;47.980;18.780;2024-01-27T08:03:26;4.60;;;2.30;;
72325;SDS011;60278;47.980;18.780;2024-01-27T08:06:28;20.02;;;8.27;;
72325;SDS011;60278;47.980;18.780;2024-01-27T08:09:33;20.33;;;10.05;;
72325;SDS011;60278;47.980;18.780;2024-01-27T08:12:36;9.70;;;4.53;;
72325;SDS011;60278;47.980;18.780;2024-01-27T08:15:38;6.07;;;3.47;;
72325;SDS011;60278;47.980;18.780;2024-01-27T08:18:41;9.65;;;4.50;;
72325;SDS011;60278;47.980;18.780;2024-01-27T08:21:46;21.92;;;14.00;;
72325;SDS011;60278;47.980;18.780;2024-01-27T08:24:48;6.03;;;3.55;;
72325;SDS011;60278;47.980;18.780;2024-01-27T08:27:50;11.95;;;4.80;;
72325;SDS011;60278;47.980;18.780;2024-01-27T08:30:53;11.17;;;5.37;;
72325;SDS011;60278;47.980;18.780;2024-01-27T08:33:55;10.38;;;5.53;;
72325;SDS011;60278;47.980;18.780;2024-01-27T08:36:59;11.20;;;5.35;;
72325;SDS011;60278;47.980;18.780;2024-01-27T08:40:02;15.20;;;8.00;;
72325;SDS011;60278;47.980;18.780;2024-01-27T08:43:04;29.42;;;16.10;;
72325;SDS011;60278;47.980;18.780;2024-01-27T08:46:07;6.87;;;4.07;;
72325;SDS011;60278;47.980;18.780;2024-01-27T08:49:13;6.35;;;3.50;;
72325;SDS011;60278;47.980;18.780;2024-01-27T08:52:16;7.65;;;2.50;;
72325;SDS011;60278;47.980;18.780;2024-01-27T08:55:18;5.63;;;2.10;;
72325;SDS011;60278;47.980;18.780;2024-01-27T08:58:20;5.85;;;2.00;;
72325;SDS011;60278;47.980;18.780;2024-01-27T09:01:22;4.17;;;1.93;;
72325;SDS011;60278;47.980;18.780;2024-01-27T09:04:25;5.97;;;2.20;;
72325;SDS011;60278;47.980;18.780;2024-01-27T09:07:28;6.63;;;2.38;;
72325;SDS011;60278;47.980;18.780;2024-01-27T09:10:30;5.65;;;2.35;;
72325;SDS011;60278;47.980;18.780;2024-01-27T09:13:32;4.70;;;1.92;;
72325;SDS011;60278;47.980;18.780;2024-01-27T09:16:35;6.50;;;2.07;;
72325;SDS011;60278;47.980;18.780;2024-01-27T09:19:37;4.93;;;1.98;;
72325;SDS011;60278;47.980;18.780;2024-01-27T09:22:39;4.50;;;2.47;;
72325;SDS011;60278;47.980;18.780;2024-01-27T09:25:43;7.13;;;1.70;;
72325;SDS011;60278;47.980;18.780;2024-01-27T09:28:45;9.43;;;2.00;;
72325;SDS011;60278;47.980;18.780;2024-01-27T09:31:56;5.87;;;2.27;;
72325;SDS011;60278;47.980;18.780;2024-01-27T09:35:00;2.75;;;1.40;;
72325;SDS011;60278;47.980;18.780;2024-01-27T09:38:03;6.57;;;2.60;;
72325;SDS011;60278;47.980;18.780;2024-01-27T09:41:05;6.80;;;1.98;;
72325;SDS011;60278;47.980;18.780;2024-01-27T09:44:08;6.68;;;2.70;;
72325;SDS011;60278;47.980;18.780;2024-01-27T09:47:12;6.03;;;2.00;;
72325;SDS011;60278;47.980;18.780;2024-01-27T09:50:14;9.43;;;2.97;;
72325;SDS011;60278;47.980;18.780;2024-01-27T09:53:19;7.03;;;2.33;;
72325;SDS011;60278;47.980;18.780;2024-01-27T09:56:21;6.53;;;2.35;;
72325;SDS011;60278;47.980;18.780;2024-01-27T09:59:24;5.15;;;2.35;;
72325;SDS011;60278;47.980;18.780;2024-01-27T10:02:26;6.43;;;2.20;;
72325;SDS011;60278;47.980;18.780;2024-01-27T10:05:32;3.83;;;1.83;;
72325;SDS011;60278;47.980;18.780;2024-01-27T10:08:34;5.07;;;2.40;;
72325;SDS011;60278;47.980;18.780;2024-01-27T10:11:36;7.85;;;2.30;;
72325;SDS011;60278;47.980;18.780;2024-01-27T10:14:41;6.60;;;2.55;;
72325;SDS011;60278;47.980;18.780;2024-01-27T10:17:43;6.17;;;2.30;;
72325;SDS011;60278;47.980;18.780;2024-01-27T10:20:45;9.77;;;2.35;;
72325;SDS011;60278;47.980;18.780;2024-01-27T10:23:49;3.78;;;1.83;;
72325;SDS011;60278;47.980;18.780;2024-01-27T10:26:51;7.05;;;2.10;;
72325;SDS011;60278;47.980;18.780;2024-01-27T10:30:00;5.68;;;1.73;;
72325;SDS011;60278;47.980;18.780;2024-01-27T10:33:02;5.30;;;2.23;;
72325;SDS011;60278;47.980;18.780;2024-01-27T10:36:05;5.72;;;1.63;;
72325;SDS011;60278;47.980;18.780;2024-01-27T10:39:22;5.72;;;1.60;;
72325;SDS011;60278;47.980;18.780;2024-01-27T10:42:26;7.05;;;2.00;;
72325;SDS011;60278;47.980;18.780;2024-01-27T10:45:33;9.70;;;2.00;;
72325;SDS011;60278;47.980;18.780;2024-01-27T10:48:37;6.67;;;2.00;;
72325;SDS011;60278;47.980;18.780;2024-01-27T10:51:40;5.55;;;2.30;;
72325;SDS011;60278;47.980;18.780;2024-01-27T10:54:44;10.90;;;3.28;;
72325;SDS011;60278;47.980;18.780;2024-01-27T10:57:47;6.72;;;2.15;;
72325;SDS011;60278;47.980;18.780;2024-01-27T11:00:50;7.68;;;2.42;;
72325;SDS011;60278;47.980;18.780;2024-01-27T11:03:52;7.27;;;2.20;;
72325;SDS011;60278;47.980;18.780;2024-01-27T11:06:56;8.13;;;2.20;;
72325;SDS011;60278;47.980;18.780;2024-01-27T11:10:02;5.90;;;1.75;;
72325;SDS011;60278;47.980;18.780;2024-01-27T11:13:04;6.50;;;2.42;;
72325;SDS011;60278;47.980;18.780;2024-01-27T11:16:14;6.32;;;2.00;;
72325;SDS011;60278;47.980;18.780;2024-01-27T11:19:17;5.20;;;2.10;;
72325;SDS011;60278;47.980;18.780;2024-01-27T11:22:26;7.20;;;2.45;;
72325;SDS011;60278;47.980;18.780;2024-01-27T11:25:28;4.40;;;2.00;;
72325;SDS011;60278;47.980;18.780;2024-01-27T11:28:30;6.18;;;2.22;;
72325;SDS011;60278;47.980;18.780;2024-01-27T11:31:32;8.05;;;2.40;;
72325;SDS011;60278;47.980;18.780;2024-01-27T11:34:44;4.73;;;2.03;;
72325;SDS011;60278;47.980;18.780;2024-01-27T11:37:47;5.75;;;2.47;;
72325;SDS011;60278;47.980;18.780;2024-01-27T11:40:50;8.85;;;2.80;;
72325;SDS011;60278;47.980;18.780;2024-01-27T11:43:52;10.15;;;3.03;;
72325;SDS011;60278;47.980;18.780;2024-01-27T11:46:54;4.65;;;2.03;;
72325;SDS011;60278;47.980;18.780;2024-01-27T11:49:57;7.30;;;2.00;;
72325;SDS011;60278;47.980;18.780;2024-01-27T11:53:00;6.55;;;1.90;;
72325;SDS011;60278;47.980;18.780;2024-01-27T11:56:05;5.18;;;2.55;;
72325;SDS011;60278;47.980;18.780;2024-01-27T11:59:07;6.68;;;1.70;;
72325;SDS011;60278;47.980;18.780;2024-01-27T12:02:09;4.82;;;2.00;;
72325;SDS011;60278;47.980;18.780;2024-01-27T12:05:12;8.17;;;2.10;;
72325;SDS011;60278;47.980;18.780;2024-01-27T12:08:16;4.95;;;1.83;;
72325;SDS011;60278;47.980;18.780;2024-01-27T12:11:18;6.90;;;2.55;;
72325;SDS011;60278;47.980;18.780;2024-01-27T12:14:25;6.43;;;2.30;;
72325;SDS011;60278;47.980;18.780;2024-01-27T12:17:28;6.38;;;2.25;;
72325;SDS011;60278;47.980;18.780;2024-01-27T12:20:30;5.47;;;1.80;;
72325;SDS011;60278;47.980;18.780;2024-01-27T12:23:32;5.53;;;2.10;;
72325;SDS011;60278;47.980;18.780;2024-01-27T12:26:34;6.32;;;2.47;;
72325;SDS011;60278;47.980;18.780;2024-01-27T12:29:41;5.32;;;2.65;;
72325;SDS011;60278;47.980;18.780;2024-01-27T12:32:43;9.10;;;2.63;;
72325;SDS011;60278;47.980;18.780;2024-01-27T12:35:45;8.10;;;2.47;;
72325;SDS011;60278;47.980;18.780;2024-01-27T12:41:57;6.50;;;2.10;;
72325;SDS011;60278;47.980;18.780;2024-01-27T12:44:59;5.82;;;2.22;;
72325;SDS011;60278;47.980;18.780;2024-01-27T12:48:01;5.25;;;2.15;;
72325;SDS011;60278;47.980;18.780;2024-01-27T12:51:06;6.07;;;1.90;;
72325;SDS011;60278;47.980;18.780;2024-01-27T12:54:09;6.22;;;1.80;;
72325;SDS011;60278;47.980;18.780;2024-01-27T12:57:11;9.93;;;2.45;;
72325;SDS011;60278;47.980;18.780;2024-01-27T13:00:13;6.43;;;2.10;;
72325;SDS011;60278;47.980;18.780;2024-01-27T13:03:17;7.55;;;2.58;;
72325;SDS011;60278;47.980;18.780;2024-01-27T13:06:19;4.90;;;2.27;;
72325;SDS011;60278;47.980;18.780;2024-01-27T13:09:22;5.18;;;1.90;;
72325;SDS011;60278;47.980;18.780;2024-01-27T13:12:24;6.57;;;2.20;;
72325;SDS011;60278;47.980;18.780;2024-01-27T13:15:26;5.55;;;2.15;;
72325;SDS011;60278;47.980;18.780;2024-01-27T13:18:28;6.82;;;2.15;;
72325;SDS011;60278;47.980;18.780;2024-01-27T13:21:31;5.63;;;2.20;;
72325;SDS011;60278;47.980;18.780;2024-01-27T13:24:33;7.22;;;2.40;;
72325;SDS011;60278;47.980;18.780;2024-01-27T13:27:35;5.72;;;2.30;;
72325;SDS011;60278;47.980;18.780;2024-01-27T13:30:37;4.72;;;1.95;;
72325;SDS011;60278;47.980;18.780;2024-01-27T13:33:40;6.10;;;2.40;;
72325;SDS011;60278;47.980;18.780;2024-01-27T13:36:42;7.77;;;2.17;;
72325;SDS011;60278;47.980;18.780;2024-01-27T13:39:44;5.72;;;2.67;;
72325;SDS011;60278;47.980;18.780;2024-01-27T13:42:47;8.07;;;2.35;;
72325;SDS011;60278;47.980;18.780;2024-01-27T13:45:49;7.13;;;2.47;;
72325;SDS011;60278;47.980;18.780;2024-01-27T13:48:53;6.75;;;2.28;;
72325;SDS011;60278;47.980;18.780;2024-01-27T13:51:55;8.30;;;2.37;;
72325;SDS011;60278;47.980;18.780;2024-01-27T13:54:57;11.82;;;2.20;;
72325;SDS011;60278;47.980;18.780;2024-01-27T13:57:59;7.22;;;2.45;;
72325;SDS011;60278;47.980;18.780;2024-01-27T14:01:01;7.72;;;2.28;;
72325;SDS011;60278;47.980;18.780;2024-01-27T14:04:05;8.30;;;2.22;;
72325;SDS011;60278;47.980;18.780;2024-01-27T14:07:10;6.67;;;2.33;;
72325;SDS011;60278;47.980;18.780;2024-01-27T14:10:12;7.72;;;2.47;;
72325;SDS011;60278;47.980;18.780;2024-01-27T14:13:15;9.23;;;2.38;;
72325;SDS011;60278;47.980;18.780;2024-01-27T14:16:17;10.38;;;2.10;;
72325;SDS011;60278;47.980;18.780;2024-01-27T14:19:22;10.90;;;2.28;;
72325;SDS011;60278;47.980;18.780;2024-01-27T14:22:25;8.60;;;2.70;;
72325;SDS011;60278;47.980;18.780;2024-01-27T14:25:27;6.13;;;2.38;;
72325;SDS011;60278;47.980;18.780;2024-01-27T14:28:29;6.03;;;2.40;;
72325;SDS011;60278;47.980;18.780;2024-01-27T14:31:32;8.10;;;2.38;;
72325;SDS011;60278;47.980;18.780;2024-01-27T14:34:34;7.50;;;2.40;;
72325;SDS011;60278;47.980;18.780;2024-01-27T14:37:36;6.90;;;2.57;;
72325;SDS011;60278;47.980;18.780;2024-01-27T14:40:40;8.68;;;2.38;;
72325;SDS011;60278;47.980;18.780;2024-01-27T14:43:42;12.48;;;2.58;;
72325;SDS011;60278;47.980;18.780;2024-01-27T14:46:44;9.43;;;2.30;;
72325;SDS011;60278;47.980;18.780;2024-01-27T14:49:46;5.75;;;2.28;;
72325;SDS011;60278;47.980;18.780;2024-01-27T14:52:48;9.70;;;2.13;;
72325;SDS011;60278;47.980;18.780;2024-01-27T14:55:50;11.55;;;3.03;;
72325;SDS011;60278;47.980;18.780;2024-01-27T14:58:52;10.75;;;3.03;;
72325;SDS011;60278;47.980;18.780;2024-01-27T15:01:55;7.28;;;2.38;;
72325;SDS011;60278;47.980;18.780;2024-01-27T15:04:59;8.32;;;2.40;;
72325;SDS011;60278;47.980;18.780;2024-01-27T15:08:01;8.63;;;2.23;;
72325;SDS011;60278;47.980;18.780;2024-01-27T15:11:03;6.78;;;2.67;;
72325;SDS011;60278;47.980;18.780;2024-01-27T15:14:06;7.95;;;2.70;;
72325;SDS011;60278;47.980;18.780;2024-01-27T15:17:08;8.80;;;2.60;;
72325;SDS011;60278;47.980;18.780;2024-01-27T15:20:10;8.68;;;2.85;;
72325;SDS011;60278;47.980;18.780;2024-01-27T15:23:14;9.13;;;2.60;;
72325;SDS011;60278;47.980;18.780;2024-01-27T15:26:16;7.90;;;2.55;;
72325;SDS011;60278;47.980;18.780;2024-01-27T15:29:18;4.85;;;2.45;;
72325;SDS011;60278;47.980;18.780;2024-01-27T15:32:20;11.43;;;2.92;;
72325;SDS011;60278;47.980;18.780;2024-01-27T15:35:25;10.52;;;2.72;;
72325;SDS011;60278;47.980;18.780;2024-01-27T15:38:31;9.40;;;2.90;;
72325;SDS011;60278;47.980;18.780;2024-01-27T15:41:34;5.97;;;2.80;;
72325;SDS011;60278;47.980;18.780;2024-01-27T15:44:39;10.20;;;2.63;;
72325;SDS011;60278;47.980;18.780;2024-01-27T15:47:41;10.90;;;3.08;;
72325;SDS011;60278;47.980;18.780;2024-01-27T15:50:44;10.18;;;2.63;;
72325;SDS011;60278;47.980;18.780;2024-01-27T15:53:49;6.20;;;2.57;;
72325;SDS011;60278;47.980;18.780;2024-01-27T15:56:51;7.28;;;2.50;;
72325;SDS011;60278;47.980;18.780;2024-01-27T15:59:53;5.32;;;2.60;;
72325;SDS011;60278;47.980;18.780;2024-01-27T16:02:57;6.65;;;2.30;;
72325;SDS011;60278;47.980;18.780;2024-01-27T16:05:59;7.63;;;2.90;;
72325;SDS011;60278;47.980;18.780;2024-01-27T16:09:02;11.07;;;3.07;;
72325;SDS011;60278;47.980;18.780;2024-01-27T16:12:08;6.32;;;2.70;;
72325;SDS011;60278;47.980;18.780;2024-01-27T16:15:11;8.55;;;3.25;;
72325;SDS011;60278;47.980;18.780;2024-01-27T16:18:14;7.60;;;2.70;;
72325;SDS011;60278;47.980;18.780;2024-01-27T16:21:17;10.85;;;3.40;;
72325;SDS011;60278;47.980;18.780;2024-01-27T16:24:19;10.27;;;2.67;;
72325;SDS011;60278;47.980;18.780;2024-01-27T16:27:21;7.22;;;2.63;;
72325;SDS011;60278;47.980;18.780;2024-01-27T16:30:31;7.00;;;2.95;;
72325;SDS011;60278;47.980;18.780;2024-01-27T16:33:33;6.35;;;3.00;;
72325;SDS011;60278;47.980;18.780;2024-01-27T16:36:36;8.70;;;3.00;;
72325;SDS011;60278;47.980;18.780;2024-01-27T16:39:38;10.03;;;2.80;;
72325;SDS011;60278;47.980;18.780;2024-01-27T16:42:41;9.13;;;3.20;;
72325;SDS011;60278;47.980;18.780;2024-01-27T16:45:43;7.95;;;2.67;;
72325;SDS011;60278;47.980;18.780;2024-01-27T16:48:45;10.93;;;2.17;;
72325;SDS011;60278;47.980;18.780;2024-01-27T16:51:49;9.18;;;2.47;;
72325;SDS011;60278;47.980;18.780;2024-01-27T16:54:54;6.10;;;2.60;;
72325;SDS011;60278;47.980;18.780;2024-01-27T16:57:57;6.57;;;2.45;;
72325;SDS011;60278;47.980;18.780;2024-01-27T17:01:00;11.52;;;4.03;;
72325;SDS011;60278;47.980;18.780;2024-01-27T17:04:02;6.38;;;2.30;;
72325;SDS011;60278;47.980;18.780;2024-01-27T17:07:05;6.97;;;2.88;;
72325;SDS011;60278;47.980;18.780;2024-01-27T17:10:10;7.67;;;2.70;;
72325;SDS011;60278;47.980;18.780;2024-01-27T17:13:12;7.15;;;2.10;;
72325;SDS011;60278;47.980;18.780;2024-01-27T17:16:17;8.15;;;2.75;;
72325;SDS011;60278;47.980;18.780;2024-01-27T17:19:19;10.02;;;3.08;;
72325;SDS011;60278;47.980;18.780;2024-01-27T17:22:22;10.30;;;3.20;;
72325;SDS011;60278;47.980;18.780;2024-01-27T17:25:25;7.33;;;2.63;;
72325;SDS011;60278;47.980;18.780;2024-01-27T17:28:27;8.95;;;2.63;;
72325;SDS011;60278;47.980;18.780;2024-01-27T17:31:29;8.45;;;2.70;;
72325;SDS011;60278;47.980;18.780;2024-01-27T17:34:31;9.40;;;2.72;;
72325;SDS011;60278;47.980;18.780;2024-01-27T17:37:34;5.75;;;2.53;;
72325;SDS011;60278;47.980;18.780;2024-01-27T17:40:38;6.90;;;2.60;;
72325;SDS011;60278;47.980;18.780;2024-01-27T17:43:40;16.80;;;2.80;;
72325;SDS011;60278;47.980;18.780;2024-01-27T17:46:42;7.03;;;3.25;;
72325;SDS011;60278;47.980;18.780;2024-01-27T17:49:44;10.73;;;2.78;;
72325;SDS011;60278;47.980;18.780;2024-01-27T17:52:46;8.35;;;2.78;;
72325;SDS011;60278;47.980;18.780;2024-01-27T17:55:49;9.57;;;2.47;;
72325;SDS011;60278;47.980;18.780;2024-01-27T17:58:51;10.93;;;3.00;;
72325;SDS011;60278;47.980;18.780;2024-01-27T18:01:53;6.78;;;2.97;;
72325;SDS011;60278;47.980;18.780;2024-01-27T18:04:55;10.10;;;2.70;;